createdAt,value
2018-12-22T00:00:07.721Z,7.78
2018-12-22T00:02:37.629Z,7.74
2018-12-22T00:05:06.718Z,7.78
2018-12-22T00:07:36.140Z,7.74
2018-12-22T00:10:05.886Z,7.72
2018-12-22T00:12:35.221Z,7.75
2018-12-22T00:15:04.255Z,7.79
2018-12-22T00:17:33.568Z,7.73
2018-12-22T00:20:02.596Z,7.73
2018-12-22T00:22:31.520Z,7.83
2018-12-22T00:25:00.779Z,7.84
2018-12-22T00:27:29.804Z,7.79
2018-12-22T00:29:58.789Z,7.88
2018-12-22T00:32:27.943Z,7.81
2018-12-22T00:34:57.586Z,7.80
2018-12-22T00:37:26.510Z,7.87
2018-12-22T00:39:56.114Z,7.83
2018-12-22T00:42:25.928Z,7.82
2018-12-22T00:44:59.401Z,7.72
2018-12-22T00:47:28.805Z,7.76
2018-12-22T00:49:57.995Z,7.72
2018-12-22T00:52:27.122Z,7.73
2018-12-22T00:54:55.975Z,7.72
2018-12-22T00:57:24.926Z,7.80
2018-12-22T00:59:54.259Z,7.77
2018-12-22T01:02:23.447Z,7.78
2018-12-22T01:04:52.362Z,7.79
2018-12-22T01:07:21.275Z,7.74
2018-12-22T01:09:50.171Z,7.73
2018-12-22T01:12:19.207Z,7.73
2018-12-22T01:14:48.475Z,7.74
2018-12-22T01:17:17.486Z,7.81
2018-12-22T01:19:47.271Z,7.79
2018-12-22T01:22:16.196Z,7.79
2018-12-22T01:24:45.187Z,7.67
2018-12-22T01:27:14.686Z,7.74
2018-12-22T01:29:43.689Z,7.75
2018-12-22T01:32:13.079Z,7.71
2018-12-22T01:34:41.935Z,7.73
2018-12-22T01:37:11.392Z,7.71
2018-12-22T01:39:40.298Z,7.71
2018-12-22T01:42:09.569Z,7.69
2018-12-22T01:44:38.558Z,7.71
2018-12-22T01:47:07.722Z,7.69
2018-12-22T01:49:36.653Z,7.71
2018-12-22T01:52:05.540Z,7.68
2018-12-22T01:54:34.598Z,7.69
2018-12-22T01:57:03.637Z,7.71
2018-12-22T01:59:32.551Z,7.67
2018-12-22T02:02:01.470Z,7.57
2018-12-22T02:04:30.406Z,7.68
2018-12-22T02:06:59.442Z,7.69
2018-12-22T02:09:28.314Z,7.66
2018-12-22T02:11:57.153Z,7.58
2018-12-22T02:14:26.674Z,7.65
2018-12-22T02:16:55.570Z,7.49
2018-12-22T02:19:24.958Z,7.57
2018-12-22T02:21:53.884Z,7.50
2018-12-22T02:24:22.755Z,7.49
2018-12-22T02:26:51.656Z,7.42
2018-12-22T02:29:20.607Z,7.32
2018-12-22T02:31:49.676Z,7.26
2018-12-22T02:34:18.618Z,7.30
2018-12-22T02:36:47.563Z,7.29
2018-12-22T02:39:16.508Z,7.22
2018-12-22T02:41:45.414Z,7.29
2018-12-22T02:44:14.390Z,7.33
2018-12-22T02:46:43.284Z,7.22
2018-12-22T02:49:12.220Z,7.37
2018-12-22T02:51:41.501Z,7.23
2018-12-22T02:54:10.448Z,7.23
2018-12-22T02:56:39.515Z,7.21
2018-12-22T02:59:08.434Z,7.10
2018-12-22T03:01:37.492Z,7.15
2018-12-22T03:04:06.405Z,7.11
2018-12-22T03:06:35.292Z,7.07
2018-12-22T03:09:06.613Z,7.00
2018-12-22T03:11:35.493Z,6.93
2018-12-22T03:14:04.488Z,6.97
2018-12-22T03:16:33.807Z,6.94
2018-12-22T03:19:03.105Z,6.82
2018-12-22T03:21:32.156Z,6.86
2018-12-22T03:24:01.049Z,6.85
2018-12-22T03:26:29.990Z,6.78
2018-12-22T03:28:58.943Z,6.74
2018-12-22T03:31:27.933Z,6.81
2018-12-22T03:33:56.960Z,6.69
2018-12-22T03:36:26.272Z,6.68
2018-12-22T03:38:55.256Z,6.73
2018-12-22T03:41:24.516Z,6.82
2018-12-22T03:43:53.404Z,6.76
2018-12-22T03:46:22.358Z,6.66
2018-12-22T03:48:51.197Z,6.80
2018-12-22T03:51:20.086Z,6.79
2018-12-22T03:53:48.950Z,6.85
2018-12-22T03:56:17.989Z,6.85
2018-12-22T03:58:46.977Z,6.75
2018-12-22T04:01:16.165Z,6.73
2018-12-22T04:03:45.379Z,6.68
2018-12-22T04:06:14.452Z,6.71
2018-12-22T04:08:43.339Z,6.71
2018-12-22T04:11:12.386Z,6.58
2018-12-22T04:13:41.228Z,6.62
2018-12-22T04:16:10.220Z,6.59
2018-12-22T04:18:40.072Z,6.49
2018-12-22T04:21:08.985Z,6.57
2018-12-22T04:23:37.951Z,6.43
2018-12-22T04:26:06.914Z,6.49
2018-12-22T04:28:35.807Z,6.45
2018-12-22T04:31:04.756Z,6.48
2018-12-22T04:33:33.655Z,6.43
2018-12-22T04:36:02.758Z,6.34
2018-12-22T04:38:31.954Z,6.32
2018-12-22T04:41:00.968Z,6.37
2018-12-22T04:43:30.138Z,6.24
2018-12-22T04:45:59.218Z,6.34
2018-12-22T04:48:28.291Z,6.26
2018-12-22T04:50:57.218Z,6.14
2018-12-22T04:53:27.326Z,6.14
2018-12-22T04:55:56.357Z,6.08
2018-12-22T04:58:25.222Z,5.97
2018-12-22T05:00:54.896Z,5.95
2018-12-22T05:03:23.788Z,5.72
2018-12-22T05:05:52.729Z,5.87
2018-12-22T05:08:21.608Z,5.93
2018-12-22T05:10:50.528Z,5.76
2018-12-22T05:13:19.464Z,5.80
2018-12-22T05:15:49.321Z,5.79
2018-12-22T05:18:18.157Z,5.91
2018-12-22T05:20:47.312Z,5.90
2018-12-22T05:23:16.497Z,6.02
2018-12-22T05:25:45.490Z,6.08
2018-12-22T05:28:14.420Z,6.13
2018-12-22T05:30:43.395Z,6.20
2018-12-22T05:33:12.252Z,6.02
2018-12-22T05:35:41.259Z,6.11
2018-12-22T05:38:10.259Z,6.18
2018-12-22T05:40:39.436Z,6.29
2018-12-22T05:43:08.417Z,6.20
2018-12-22T05:45:37.286Z,6.24
2018-12-22T05:48:06.256Z,6.32
2018-12-22T05:50:35.311Z,6.27
2018-12-22T05:53:04.400Z,6.37
2018-12-22T05:55:33.637Z,6.37
2018-12-22T05:58:02.564Z,6.39
2018-12-22T06:00:31.457Z,6.48
2018-12-22T06:03:00.467Z,6.60
2018-12-22T06:05:29.508Z,6.58
2018-12-22T06:07:58.431Z,6.55
2018-12-22T06:10:27.370Z,6.49
2018-12-22T06:12:56.279Z,6.56
2018-12-22T06:15:25.211Z,6.42
2018-12-22T06:17:54.126Z,6.54
2018-12-22T06:20:23.243Z,6.66
2018-12-22T06:22:52.263Z,6.64
2018-12-22T06:25:21.537Z,6.67
2018-12-22T06:27:50.538Z,6.66
2018-12-22T06:30:19.481Z,6.63
2018-12-22T06:32:48.550Z,6.62
2018-12-22T06:35:17.771Z,6.56
2018-12-22T06:37:46.928Z,6.62
2018-12-22T06:40:16.338Z,6.56
2018-12-22T06:42:45.503Z,6.57
2018-12-22T06:45:14.687Z,6.78
2018-12-22T06:47:43.609Z,6.50
2018-12-22T06:50:12.536Z,6.66
2018-12-22T06:52:41.775Z,6.42
2018-12-22T06:55:10.851Z,6.53
2018-12-22T06:57:39.786Z,6.57
2018-12-22T07:00:17.402Z,6.49
2018-12-22T07:02:41.100Z,6.50
2018-12-22T07:05:10.203Z,6.54
2018-12-22T07:07:39.113Z,6.42
2018-12-22T07:10:09.115Z,6.43
2018-12-22T07:12:38.242Z,6.60
2018-12-22T07:15:07.400Z,6.56
2018-12-22T07:17:36.434Z,6.47
2018-12-22T07:20:05.915Z,6.46
2018-12-22T07:22:34.915Z,6.44
2018-12-22T07:25:04.233Z,6.49
2018-12-22T07:27:33.545Z,6.52
2018-12-22T07:30:02.701Z,6.46
2018-12-22T07:32:31.765Z,6.34
2018-12-22T07:35:00.800Z,6.49
2018-12-22T07:37:29.690Z,6.52
2018-12-22T07:39:58.623Z,6.42
2018-12-22T07:42:27.640Z,6.32
2018-12-22T07:44:56.574Z,6.27
2018-12-22T07:47:25.760Z,6.54
2018-12-22T07:49:54.705Z,6.38
2018-12-22T07:52:23.695Z,6.53
2018-12-22T07:54:52.695Z,6.32
2018-12-22T07:57:22.603Z,6.47
2018-12-22T07:59:51.846Z,6.39
2018-12-22T08:02:20.726Z,6.46
2018-12-22T08:04:49.659Z,6.44
2018-12-22T08:07:18.914Z,6.42
2018-12-22T08:09:48.299Z,6.44
2018-12-22T08:12:17.372Z,6.48
2018-12-22T08:14:46.268Z,6.49
2018-12-22T08:17:15.173Z,6.47
2018-12-22T08:19:44.339Z,6.52
2018-12-22T08:22:13.981Z,6.50
2018-12-22T08:24:43.166Z,6.56
2018-12-22T08:27:12.026Z,6.58
2018-12-22T08:29:41.105Z,6.55
2018-12-22T08:32:10.068Z,6.62
2018-12-22T08:34:39.003Z,6.74
2018-12-22T08:37:08.232Z,6.79
2018-12-22T08:39:37.282Z,6.83
2018-12-22T08:42:06.250Z,6.87
2018-12-22T08:44:35.209Z,6.94
2018-12-22T08:47:04.239Z,6.81
2018-12-22T08:49:33.196Z,6.94
2018-12-22T08:52:02.086Z,6.89
2018-12-22T08:54:31.160Z,6.85
2018-12-22T08:57:00.455Z,6.94
2018-12-22T08:59:29.355Z,6.66
2018-12-22T09:01:58.261Z,6.94
2018-12-22T09:04:27.992Z,7.03
2018-12-22T09:06:56.904Z,6.99
2018-12-22T09:09:26.493Z,7.08
2018-12-22T09:11:55.346Z,7.23
2018-12-22T09:14:24.306Z,7.13
2018-12-22T09:16:53.368Z,7.00
2018-12-22T09:19:22.316Z,7.14
2018-12-22T09:21:51.247Z,7.16
2018-12-22T09:24:20.183Z,7.06
2018-12-22T09:26:49.091Z,7.24
2018-12-22T09:29:17.985Z,7.36
2018-12-22T09:31:47.067Z,7.37
2018-12-22T09:34:16.106Z,7.19
2018-12-22T09:36:45.091Z,7.44
2018-12-22T09:39:13.947Z,7.28
2018-12-22T09:41:43.019Z,7.17
2018-12-22T09:44:11.942Z,7.40
2018-12-22T09:46:43.062Z,7.43
2018-12-22T09:49:12.022Z,7.48
2018-12-22T09:51:40.909Z,7.15
2018-12-22T09:54:09.779Z,7.35
2018-12-22T09:56:38.687Z,7.41
2018-12-22T09:59:07.625Z,7.52
2018-12-22T10:01:36.516Z,7.49
2018-12-22T10:04:05.692Z,7.65
2018-12-22T10:06:35.420Z,7.67
2018-12-22T10:09:07.219Z,7.58
2018-12-22T10:11:37.581Z,7.70
2018-12-22T10:14:06.565Z,7.84
2018-12-22T10:16:35.486Z,7.90
2018-12-22T10:19:04.415Z,7.91
2018-12-22T10:21:33.403Z,7.78
2018-12-22T10:24:02.465Z,7.59
2018-12-22T10:26:32.702Z,7.77
2018-12-22T10:29:02.778Z,7.79
2018-12-22T10:31:32.083Z,7.74
2018-12-22T10:34:00.984Z,7.87
2018-12-22T10:36:30.764Z,8.01
2018-12-22T10:38:59.808Z,8.08
2018-12-22T10:41:28.811Z,7.86
2018-12-22T10:43:57.762Z,8.07
2018-12-22T10:46:26.944Z,8.06
2018-12-22T10:48:56.715Z,8.05
2018-12-22T10:51:25.767Z,8.08
2018-12-22T10:53:54.740Z,8.25
2018-12-22T10:56:23.754Z,8.17
2018-12-22T10:58:52.846Z,8.17
2018-12-22T11:01:26.368Z,8.36
2018-12-22T11:03:52.718Z,8.51
2018-12-22T11:06:21.847Z,8.40
2018-12-22T11:08:51.326Z,8.36
2018-12-22T11:11:20.262Z,8.32
2018-12-22T11:13:49.252Z,8.33
2018-12-22T11:16:18.288Z,8.40
2018-12-22T11:18:47.194Z,8.46
2018-12-22T11:21:16.087Z,8.49
2018-12-22T11:23:44.969Z,8.48
2018-12-22T11:26:13.983Z,8.49
2018-12-22T11:28:42.869Z,8.60
2018-12-22T11:31:11.736Z,8.50
2018-12-22T11:33:40.649Z,8.57
2018-12-22T11:36:09.550Z,8.63
2018-12-22T11:38:38.773Z,8.73
2018-12-22T11:41:07.628Z,8.58
2018-12-22T11:43:36.937Z,8.64
2018-12-22T11:46:06.289Z,8.53
2018-12-22T11:48:57.935Z,8.54
2018-12-22T11:51:27.076Z,8.50
2018-12-22T11:53:55.962Z,8.51
2018-12-22T11:56:24.863Z,8.51
2018-12-22T11:58:53.886Z,8.63
2018-12-22T12:01:22.730Z,8.62
2018-12-22T12:03:51.735Z,8.64
2018-12-22T12:06:20.652Z,8.72
2018-12-22T12:08:49.606Z,8.69
2018-12-22T12:11:18.446Z,8.76
2018-12-22T12:13:48.751Z,8.64
2018-12-22T12:16:29.364Z,8.63
2018-12-22T12:19:21.730Z,8.79
2018-12-22T12:21:50.981Z,8.79
2018-12-22T12:24:19.962Z,8.69
2018-12-22T12:26:49.264Z,8.77
2018-12-22T12:29:18.527Z,8.67
2018-12-22T12:31:52.065Z,8.70
2018-12-22T12:34:18.555Z,8.72
2018-12-22T12:36:47.550Z,8.71
2018-12-22T12:39:16.979Z,8.63
2018-12-22T12:41:46.113Z,8.66
2018-12-22T12:44:15.032Z,8.62
2018-12-22T12:46:48.154Z,8.71
2018-12-22T12:49:18.837Z,8.67
2018-12-22T12:51:48.022Z,8.43
2018-12-22T12:54:17.315Z,8.46
2018-12-22T12:56:57.462Z,8.39
2018-12-22T12:59:28.571Z,8.30
2018-12-22T13:02:01.291Z,8.30
2018-12-22T13:04:28.890Z,8.23
2018-12-22T13:06:57.903Z,8.33
2018-12-22T13:09:27.255Z,8.23
2018-12-22T13:12:00.955Z,8.28
2018-12-22T13:14:29.899Z,8.38
2018-12-22T13:16:58.814Z,8.45
2018-12-22T13:19:27.906Z,8.41
2018-12-22T13:21:56.811Z,8.40
2018-12-22T13:24:25.840Z,8.40
2018-12-22T13:26:54.651Z,8.38
2018-12-22T13:29:23.587Z,8.44
2018-12-22T13:31:52.816Z,8.55
2018-12-22T13:34:21.722Z,8.52
2018-12-22T13:36:50.669Z,8.45
2018-12-22T13:39:27.742Z,8.35
2018-12-22T13:41:57.049Z,8.30
2018-12-22T13:44:26.384Z,8.34
2018-12-22T13:46:55.331Z,8.26
2018-12-22T13:49:24.695Z,8.14
2018-12-22T13:51:53.670Z,8.27
2018-12-22T13:54:25.529Z,8.14
2018-12-22T13:56:54.753Z,8.10
2018-12-22T13:59:24.218Z,8.20
2018-12-22T14:02:02.434Z,8.12
2018-12-22T14:04:34.422Z,8.13
2018-12-22T14:07:05.492Z,8.18
2018-12-22T14:09:34.761Z,8.09
2018-12-22T14:12:03.654Z,8.11
2018-12-22T14:14:38.471Z,8.14
2018-12-22T14:17:30.951Z,8.16
2018-12-22T14:20:10.493Z,8.22
2018-12-22T14:22:39.365Z,8.27
2018-12-22T14:25:19.807Z,8.27
2018-12-22T14:27:48.673Z,8.20
2018-12-22T14:30:17.615Z,8.30
2018-12-22T14:32:46.573Z,8.22
2018-12-22T14:35:37.894Z,8.28
2018-12-22T14:38:07.172Z,8.41
2018-12-22T14:40:36.134Z,8.37
2018-12-22T14:43:05.215Z,8.26
2018-12-22T14:45:34.074Z,8.36
2018-12-22T14:48:03.016Z,8.33
2018-12-22T14:50:32.066Z,8.31
2018-12-22T14:53:01.040Z,8.27
2018-12-22T14:55:32.703Z,8.33
2018-12-22T14:58:10.834Z,8.29
2018-12-22T15:00:39.712Z,8.33
2018-12-22T15:03:09.556Z,8.38
2018-12-22T15:05:38.657Z,8.25
2018-12-22T15:08:07.859Z,8.35
2018-12-22T15:10:37.019Z,8.37
2018-12-22T15:13:05.922Z,8.30
2018-12-22T15:15:34.953Z,8.39
2018-12-22T15:18:04.553Z,8.43
2018-12-22T15:20:33.927Z,8.42
2018-12-22T15:23:07.220Z,8.43
2018-12-22T15:25:36.158Z,8.39
2018-12-22T15:28:05.370Z,8.40
2018-12-22T15:30:34.260Z,8.40
2018-12-22T15:33:03.180Z,8.41
2018-12-22T15:35:32.098Z,8.45
2018-12-22T15:38:01.114Z,8.52
2018-12-22T15:40:29.998Z,8.43
2018-12-22T15:42:59.202Z,8.49
2018-12-22T15:45:28.116Z,8.46
2018-12-22T15:47:56.996Z,8.30
2018-12-22T15:50:29.174Z,8.40
2018-12-22T15:52:58.834Z,8.38
2018-12-22T15:55:27.846Z,8.45
2018-12-22T15:57:56.739Z,8.39
2018-12-22T16:00:25.678Z,8.37
2018-12-22T16:02:54.794Z,8.26
2018-12-22T16:05:23.634Z,8.33
2018-12-22T16:07:52.526Z,8.36
2018-12-22T16:10:21.391Z,8.30
2018-12-22T16:12:50.278Z,8.34
2018-12-22T16:15:20.374Z,8.30
2018-12-22T16:17:49.453Z,8.36
2018-12-22T16:20:18.462Z,8.28
2018-12-22T16:22:54.703Z,8.26
2018-12-22T16:25:24.445Z,8.39
2018-12-22T16:27:59.937Z,8.26
2018-12-22T16:30:39.355Z,8.32
2018-12-22T16:33:08.255Z,8.34
2018-12-22T16:35:37.214Z,8.29
2018-12-22T16:38:06.583Z,8.33
2018-12-22T16:40:35.667Z,8.29
2018-12-22T16:43:08.251Z,8.30
2018-12-22T16:45:40.882Z,8.35
2018-12-22T16:48:09.883Z,8.29
2018-12-22T16:50:40.680Z,8.37
2018-12-22T16:53:09.565Z,8.33
2018-12-22T16:55:38.460Z,8.35
2018-12-22T16:58:21.081Z,8.41
2018-12-22T17:02:01.119Z,8.22
2018-12-22T17:04:30.050Z,8.23
2018-12-22T17:06:58.948Z,8.19
2018-12-22T17:09:27.849Z,8.14
2018-12-22T17:11:56.756Z,8.19
2018-12-22T17:14:26.185Z,8.12
2018-12-22T17:16:55.084Z,8.12
2018-12-22T17:19:24.013Z,8.11
2018-12-22T17:22:09.466Z,8.04
2018-12-22T17:24:57.002Z,8.01
2018-12-22T17:27:25.887Z,7.95
2018-12-22T17:29:54.844Z,7.96
2018-12-22T17:32:23.751Z,7.85
2018-12-22T17:34:52.738Z,7.79
2018-12-22T17:37:21.898Z,7.75
2018-12-22T17:39:53.454Z,7.80
2018-12-22T17:42:22.241Z,7.71
2018-12-22T17:44:51.113Z,7.73
2018-12-22T17:47:20.060Z,7.63
2018-12-22T17:49:49.360Z,7.46
2018-12-22T17:52:18.292Z,7.40
2018-12-22T17:54:47.198Z,7.33
2018-12-22T17:57:16.073Z,7.25
2018-12-22T17:59:45.413Z,7.23
2018-12-22T18:02:14.600Z,7.22
2018-12-22T18:04:43.513Z,7.16
2018-12-22T18:07:12.456Z,7.17
2018-12-22T18:09:41.390Z,7.17
2018-12-22T18:12:10.321Z,7.20
2018-12-22T18:14:39.144Z,7.06
2018-12-22T18:17:07.991Z,7.12
2018-12-22T18:19:36.901Z,7.07
2018-12-22T18:22:05.857Z,6.93
2018-12-22T18:24:34.853Z,7.03
2018-12-22T18:27:03.786Z,6.90
2018-12-22T18:29:32.898Z,6.93
2018-12-22T18:32:01.803Z,6.99
2018-12-22T18:34:30.641Z,6.98
2018-12-22T18:36:59.618Z,6.99
2018-12-22T18:39:28.795Z,6.97
2018-12-22T18:41:57.736Z,6.93
2018-12-22T18:44:26.590Z,6.80
2018-12-22T18:46:55.497Z,6.84
2018-12-22T18:49:24.441Z,6.66
2018-12-22T18:51:53.314Z,6.68
2018-12-22T18:54:22.524Z,6.81
2018-12-22T18:56:51.411Z,6.78
2018-12-22T18:59:22.004Z,6.72
2018-12-22T19:01:50.942Z,6.57
2018-12-22T19:04:19.797Z,6.52
2018-12-22T19:06:48.719Z,6.66
2018-12-22T19:09:26.047Z,6.64
2018-12-22T19:11:54.977Z,6.61
2018-12-22T19:14:23.835Z,6.59
2018-12-22T19:16:52.750Z,6.60
2018-12-22T19:19:21.608Z,6.50
2018-12-22T19:21:50.534Z,6.53
2018-12-22T19:24:19.447Z,6.50
2018-12-22T19:26:48.759Z,6.60
2018-12-22T19:29:17.571Z,6.50
2018-12-22T19:31:46.713Z,6.52
2018-12-22T19:34:15.590Z,6.43
2018-12-22T19:36:44.531Z,6.45
2018-12-22T19:39:13.395Z,6.31
2018-12-22T19:41:42.566Z,6.42
2018-12-22T19:44:11.789Z,6.34
2018-12-22T19:46:40.669Z,6.31
2018-12-22T19:49:10.254Z,6.22
2018-12-22T19:51:39.151Z,6.21
2018-12-22T19:54:08.898Z,6.04
2018-12-22T19:56:38.156Z,6.10
2018-12-22T19:59:06.967Z,6.00
2018-12-22T20:01:35.927Z,5.80
2018-12-22T20:04:04.808Z,5.96
2018-12-22T20:06:33.635Z,5.92
2018-12-22T20:09:03.967Z,5.87
2018-12-22T20:11:32.875Z,5.99
2018-12-22T20:14:02.132Z,5.92
2018-12-22T20:16:31.213Z,6.01
2018-12-22T20:19:00.078Z,5.87
2018-12-22T20:21:28.927Z,5.89
2018-12-22T20:23:57.831Z,6.01
2018-12-22T20:26:26.720Z,6.00
2018-12-22T20:28:55.614Z,6.10
2018-12-22T20:31:24.485Z,6.17
2018-12-22T20:33:53.390Z,6.15
2018-12-22T20:36:22.238Z,6.10
2018-12-22T20:38:51.161Z,6.23
2018-12-22T20:41:19.994Z,6.16
2018-12-22T20:43:48.931Z,6.31
2018-12-22T20:46:17.746Z,6.28
2018-12-22T20:48:46.662Z,6.27
2018-12-22T20:51:15.560Z,6.31
2018-12-22T20:53:45.113Z,6.32
2018-12-22T20:56:14.282Z,6.39
2018-12-22T20:58:43.206Z,6.37
2018-12-22T21:01:12.061Z,6.43
2018-12-22T21:03:41.438Z,6.41
2018-12-22T21:06:16.961Z,6.50
2018-12-22T21:08:45.894Z,6.46
2018-12-22T21:11:14.787Z,6.46
2018-12-22T21:13:43.730Z,6.41
2018-12-22T21:16:12.566Z,6.39
2018-12-22T21:18:41.488Z,6.43
2018-12-22T21:21:10.337Z,6.46
2018-12-22T21:23:39.207Z,6.41
2018-12-22T21:26:08.419Z,6.48
2018-12-22T21:28:38.157Z,6.60
2018-12-22T21:31:07.195Z,6.48
2018-12-22T21:33:36.111Z,6.49
2018-12-22T21:36:05.266Z,6.52
2018-12-22T21:38:34.233Z,6.56
2018-12-22T21:41:03.402Z,6.56
2018-12-22T21:43:32.349Z,6.60
2018-12-22T21:46:01.186Z,6.49
2018-12-22T21:48:30.341Z,6.50
2018-12-22T21:50:59.266Z,6.45
2018-12-22T21:53:28.260Z,6.50
2018-12-22T21:55:57.128Z,6.44
2018-12-22T21:58:26.125Z,6.51
2018-12-22T22:00:54.986Z,6.41
2018-12-22T22:03:24.198Z,6.47
2018-12-22T22:05:53.207Z,6.36
2018-12-22T22:08:22.079Z,6.47
2018-12-22T22:10:50.976Z,6.53
2018-12-22T22:13:19.859Z,6.51
2018-12-22T22:15:49.062Z,6.47
2018-12-22T22:18:17.909Z,6.61
2018-12-22T22:20:46.867Z,6.68
2018-12-22T22:23:19.110Z,6.58
2018-12-22T22:25:50.527Z,6.61
2018-12-22T22:28:21.458Z,6.64
2018-12-22T22:30:53.716Z,6.58
2018-12-22T22:33:24.414Z,6.64
2018-12-22T22:35:54.936Z,6.65
2018-12-22T22:38:25.609Z,6.68
2018-12-22T22:40:54.798Z,6.72
2018-12-22T22:43:23.762Z,6.65
2018-12-22T22:45:52.656Z,6.73
2018-12-22T22:48:22.061Z,6.67
2018-12-22T22:50:51.056Z,6.62
2018-12-22T22:53:20.143Z,6.62
2018-12-22T22:55:49.255Z,6.71
2018-12-22T22:58:18.323Z,6.73
2018-12-22T23:00:47.471Z,6.77
2018-12-22T23:03:16.645Z,6.71
2018-12-22T23:05:46.194Z,6.82
2018-12-22T23:08:17.047Z,6.75
2018-12-22T23:10:46.089Z,6.85
2018-12-22T23:13:15.107Z,6.75
2018-12-22T23:15:44.660Z,6.83
2018-12-22T23:18:13.762Z,6.87
2018-12-22T23:20:42.866Z,6.76
2018-12-22T23:23:11.805Z,6.85
2018-12-22T23:25:40.811Z,6.88
2018-12-22T23:28:09.979Z,6.84
2018-12-22T23:30:38.977Z,6.96
2018-12-22T23:33:08.111Z,6.96
2018-12-22T23:35:37.126Z,6.96
2018-12-22T23:38:06.290Z,7.07
2018-12-22T23:40:35.318Z,7.08
2018-12-22T23:43:04.808Z,7.04
2018-12-22T23:45:34.065Z,7.13
2018-12-22T23:48:03.550Z,7.17
2018-12-22T23:50:32.929Z,7.17
2018-12-22T23:53:02.103Z,7.07
2018-12-22T23:55:31.513Z,7.14
2018-12-22T23:58:00.434Z,7.17
